sensor_id;sensor_type;location;lat;lon;timestamp;pressure;altitude;pressure_sealevel;temperature;humidity
77153;BME280;66124;51.146;17.072;2023-04-06T00:01:32;100689.98;;;0.25;72.60
77153;BME280;66124;51.146;17.072;2023-04-06T00:04:01;100689.89;;;0.19;72.86
77153;BME280;66124;51.146;17.072;2023-04-06T00:06:31;100686.70;;;0.13;72.95
77153;BME280;66124;51.146;17.072;2023-04-06T00:09:00;100687.33;;;0.09;72.97
77153;BME280;66124;51.146;17.072;2023-04-06T00:11:31;100684.41;;;0.05;73.13
77153;BME280;66124;51.146;17.072;2023-04-06T00:14:01;100686.55;;;0.04;73.20
77153;BME280;66124;51.146;17.072;2023-04-06T00:16:30;100687.88;;;0.05;73.21
77153;BME280;66124;51.146;17.072;2023-04-06T00:18:59;100684.64;;;0.07;73.19
77153;BME280;66124;51.146;17.072;2023-04-06T00:21:29;100688.58;;;0.10;73.32
77153;BME280;66124;51.146;17.072;2023-04-06T00:23:58;100687.46;;;0.14;73.35
77153;BME280;66124;51.146;17.072;2023-04-06T00:26:28;100695.02;;;0.17;73.32
77153;BME280;66124;51.146;17.072;2023-04-06T00:28:57;100695.87;;;0.13;73.31
77153;BME280;66124;51.146;17.072;2023-04-06T00:31:27;100690.30;;;-0.02;73.55
77153;BME280;66124;51.146;17.072;2023-04-06T00:33:57;100687.30;;;-0.10;73.57
77153;BME280;66124;51.146;17.072;2023-04-06T00:36:27;100688.34;;;-0.15;73.63
77153;BME280;66124;51.146;17.072;2023-04-06T00:38:56;100684.38;;;-0.23;73.80
77153;BME280;66124;51.146;17.072;2023-04-06T00:41:26;100681.05;;;-0.32;73.95
77153;BME280;66124;51.146;17.072;2023-04-06T00:43:56;100687.70;;;-0.36;73.92
77153;BME280;66124;51.146;17.072;2023-04-06T00:46:26;100685.24;;;-0.44;74.24
77153;BME280;66124;51.146;17.072;2023-04-06T00:48:56;100683.54;;;-0.49;74.34
77153;BME280;66124;51.146;17.072;2023-04-06T00:51:25;100682.38;;;-0.53;74.41
77153;BME280;66124;51.146;17.072;2023-04-06T00:53:54;100680.79;;;-0.55;74.62
77153;BME280;66124;51.146;17.072;2023-04-06T00:56:24;100683.55;;;-0.55;74.51
77153;BME280;66124;51.146;17.072;2023-04-06T00:58:53;100678.11;;;-0.53;74.64
77153;BME280;66124;51.146;17.072;2023-04-06T01:01:24;100679.91;;;-0.52;74.63
77153;BME280;66124;51.146;17.072;2023-04-06T01:03:54;100682.00;;;-0.49;74.62
77153;BME280;66124;51.146;17.072;2023-04-06T01:06:23;100678.73;;;-0.47;74.80
77153;BME280;66124;51.146;17.072;2023-04-06T01:08:51;100680.23;;;-0.44;74.85
77153;BME280;66124;51.146;17.072;2023-04-06T01:11:19;100674.00;;;-0.44;74.76
77153;BME280;66124;51.146;17.072;2023-04-06T01:14:32;100677.45;;;-0.33;74.62
77153;BME280;66124;51.146;17.072;2023-04-06T01:17:02;100676.33;;;-0.34;74.76
77153;BME280;66124;51.146;17.072;2023-04-06T01:19:31;100676.46;;;-0.34;74.68
77153;BME280;66124;51.146;17.072;2023-04-06T01:22:01;100679.93;;;-0.34;74.65
77153;BME280;66124;51.146;17.072;2023-04-06T01:24:30;100679.98;;;-0.37;74.56
77153;BME280;66124;51.146;17.072;2023-04-06T01:27:01;100677.86;;;-0.42;74.64
77153;BME280;66124;51.146;17.072;2023-04-06T01:29:30;100680.65;;;-0.45;74.57
77153;BME280;66124;51.146;17.072;2023-04-06T01:31:59;100676.41;;;-0.49;74.70
77153;BME280;66124;51.146;17.072;2023-04-06T01:34:29;100676.92;;;-0.54;74.59
77153;BME280;66124;51.146;17.072;2023-04-06T01:36:58;100671.99;;;-0.61;74.65
77153;BME280;66124;51.146;17.072;2023-04-06T01:39:28;100673.63;;;-0.62;74.63
77153;BME280;66124;51.146;17.072;2023-04-06T01:41:58;100672.63;;;-0.65;74.70
77153;BME280;66124;51.146;17.072;2023-04-06T01:44:27;100674.45;;;-0.66;74.71
77153;BME280;66124;51.146;17.072;2023-04-06T01:46:57;100673.88;;;-0.65;74.74
77153;BME280;66124;51.146;17.072;2023-04-06T01:49:26;100674.20;;;-0.62;74.76
77153;BME280;66124;51.146;17.072;2023-04-06T01:51:56;100670.91;;;-0.60;74.84
77153;BME280;66124;51.146;17.072;2023-04-06T01:54:25;100674.48;;;-0.58;74.60
77153;BME280;66124;51.146;17.072;2023-04-06T01:56:54;100675.30;;;-0.60;74.45
77153;BME280;66124;51.146;17.072;2023-04-06T01:59:24;100674.32;;;-0.62;74.42
77153;BME280;66124;51.146;17.072;2023-04-06T02:01:53;100678.04;;;-0.63;74.34
77153;BME280;66124;51.146;17.072;2023-04-06T02:04:23;100678.90;;;-0.63;74.26
77153;BME280;66124;51.146;17.072;2023-04-06T02:06:52;100675.46;;;-0.66;74.27
77153;BME280;66124;51.146;17.072;2023-04-06T02:09:22;100674.70;;;-0.68;74.37
77153;BME280;66124;51.146;17.072;2023-04-06T02:11:51;100672.96;;;-0.70;74.24
77153;BME280;66124;51.146;17.072;2023-04-06T02:14:21;100676.61;;;-0.74;74.26
77153;BME280;66124;51.146;17.072;2023-04-06T02:16:50;100676.80;;;-0.77;74.30
77153;BME280;66124;51.146;17.072;2023-04-06T02:19:20;100677.54;;;-0.80;74.42
77153;BME280;66124;51.146;17.072;2023-04-06T02:21:49;100669.63;;;-0.86;74.41
77153;BME280;66124;51.146;17.072;2023-04-06T02:24:19;100663.80;;;-0.92;74.60
77153;BME280;66124;51.146;17.072;2023-04-06T02:27:52;100668.48;;;-0.95;74.85
77153;BME280;66124;51.146;17.072;2023-04-06T02:30:22;100676.30;;;-0.98;74.82
77153;BME280;66124;51.146;17.072;2023-04-06T02:32:51;100676.21;;;-1.00;74.95
77153;BME280;66124;51.146;17.072;2023-04-06T02:35:21;100681.90;;;-1.00;75.05
77153;BME280;66124;51.146;17.072;2023-04-06T02:37:50;100677.77;;;-1.00;75.03
77153;BME280;66124;51.146;17.072;2023-04-06T02:40:21;100677.36;;;-0.99;75.01
77153;BME280;66124;51.146;17.072;2023-04-06T02:42:50;100679.84;;;-1.00;74.93
77153;BME280;66124;51.146;17.072;2023-04-06T02:45:22;100687.05;;;-0.99;74.85
77153;BME280;66124;51.146;17.072;2023-04-06T02:47:50;100688.20;;;-0.98;74.92
77153;BME280;66124;51.146;17.072;2023-04-06T02:50:19;100688.34;;;-0.98;74.97
77153;BME280;66124;51.146;17.072;2023-04-06T02:52:49;100688.71;;;-0.96;75.08
77153;BME280;66124;51.146;17.072;2023-04-06T02:55:18;100690.04;;;-0.92;75.10
77153;BME280;66124;51.146;17.072;2023-04-06T02:57:48;100690.21;;;-0.89;75.06
77153;BME280;66124;51.146;17.072;2023-04-06T03:00:18;100695.73;;;-0.89;75.06
77153;BME280;66124;51.146;17.072;2023-04-06T03:02:48;100696.12;;;-0.90;75.02
77153;BME280;66124;51.146;17.072;2023-04-06T03:05:17;100694.29;;;-0.94;74.92
77153;BME280;66124;51.146;17.072;2023-04-06T03:07:47;100691.17;;;-0.99;75.00
77153;BME280;66124;51.146;17.072;2023-04-06T03:10:16;100694.20;;;-1.03;74.81
77153;BME280;66124;51.146;17.072;2023-04-06T03:12:46;100696.92;;;-1.08;74.82
77153;BME280;66124;51.146;17.072;2023-04-06T03:15:15;100698.64;;;-1.14;74.97
77153;BME280;66124;51.146;17.072;2023-04-06T03:17:45;100702.02;;;-1.18;75.01
77153;BME280;66124;51.146;17.072;2023-04-06T03:20:14;100701.00;;;-1.24;75.05
77153;BME280;66124;51.146;17.072;2023-04-06T03:22:44;100699.29;;;-1.27;75.17
77153;BME280;66124;51.146;17.072;2023-04-06T03:25:13;100701.39;;;-1.30;75.32
77153;BME280;66124;51.146;17.072;2023-04-06T03:27:43;100704.62;;;-1.32;75.36
77153;BME280;66124;51.146;17.072;2023-04-06T03:30:13;100707.83;;;-1.34;75.40
77153;BME280;66124;51.146;17.072;2023-04-06T03:32:43;100705.70;;;-1.35;75.59
77153;BME280;66124;51.146;17.072;2023-04-06T03:35:12;100706.36;;;-1.35;75.48
77153;BME280;66124;51.146;17.072;2023-04-06T03:37:41;100706.17;;;-1.32;75.71
77153;BME280;66124;51.146;17.072;2023-04-06T03:40:10;100709.59;;;-1.26;75.65
77153;BME280;66124;51.146;17.072;2023-04-06T03:43:12;100709.27;;;-1.15;75.46
77153;BME280;66124;51.146;17.072;2023-04-06T03:45:42;100716.95;;;-1.14;75.52
77153;BME280;66124;51.146;17.072;2023-04-06T03:48:11;100716.50;;;-1.09;75.59
77153;BME280;66124;51.146;17.072;2023-04-06T03:50:40;100720.20;;;-1.08;75.55
77153;BME280;66124;51.146;17.072;2023-04-06T03:53:10;100714.23;;;-1.12;75.47
77153;BME280;66124;51.146;17.072;2023-04-06T03:55:41;100714.39;;;-1.09;75.56
77153;BME280;66124;51.146;17.072;2023-04-06T03:58:10;100715.17;;;-1.07;75.57
77153;BME280;66124;51.146;17.072;2023-04-06T04:00:39;100717.73;;;-1.07;75.43
77153;BME280;66124;51.146;17.072;2023-04-06T04:03:09;100722.11;;;-1.08;75.40
77153;BME280;66124;51.146;17.072;2023-04-06T04:05:38;100722.94;;;-1.13;75.35
77153;BME280;66124;51.146;17.072;2023-04-06T04:08:08;100722.67;;;-1.17;75.36
77153;BME280;66124;51.146;17.072;2023-04-06T04:10:37;100727.95;;;-1.22;75.28
77153;BME280;66124;51.146;17.072;2023-04-06T04:13:07;100726.58;;;-1.27;75.31
77153;BME280;66124;51.146;17.072;2023-04-06T04:15:36;100728.80;;;-1.32;75.32
77153;BME280;66124;51.146;17.072;2023-04-06T04:18:06;100728.91;;;-1.37;75.24
77153;BME280;66124;51.146;17.072;2023-04-06T04:20:35;100729.91;;;-1.43;75.31
77153;BME280;66124;51.146;17.072;2023-04-06T04:23:05;100729.66;;;-1.47;75.40
77153;BME280;66124;51.146;17.072;2023-04-06T04:25:35;100726.00;;;-1.49;75.41
77153;BME280;66124;51.146;17.072;2023-04-06T04:28:04;100728.03;;;-1.49;75.48
77153;BME280;66124;51.146;17.072;2023-04-06T04:30:34;100727.89;;;-1.46;75.58
77153;BME280;66124;51.146;17.072;2023-04-06T04:33:03;100723.23;;;-1.44;75.50
77153;BME280;66124;51.146;17.072;2023-04-06T04:35:33;100720.04;;;-1.39;75.60
77153;BME280;66124;51.146;17.072;2023-04-06T04:38:05;100717.75;;;-1.35;75.74
77153;BME280;66124;51.146;17.072;2023-04-06T04:40:35;100722.58;;;-1.24;75.63
77153;BME280;66124;51.146;17.072;2023-04-06T04:43:04;100727.44;;;-1.16;75.72
77153;BME280;66124;51.146;17.072;2023-04-06T04:45:34;100724.66;;;-1.10;75.57
77153;BME280;66124;51.146;17.072;2023-04-06T04:48:03;100728.96;;;-1.08;75.50
77153;BME280;66124;51.146;17.072;2023-04-06T04:50:33;100727.85;;;-1.06;75.37
77153;BME280;66124;51.146;17.072;2023-04-06T04:53:02;100729.88;;;-1.08;75.39
77153;BME280;66124;51.146;17.072;2023-04-06T04:55:30;100725.85;;;-1.10;75.41
77153;BME280;66124;51.146;17.072;2023-04-06T05:05:42;100730.13;;;-1.01;75.57
77153;BME280;66124;51.146;17.072;2023-04-06T05:08:30;100730.34;;;-1.04;75.46
77153;BME280;66124;51.146;17.072;2023-04-06T05:11:06;100733.31;;;-1.05;75.33
77153;BME280;66124;51.146;17.072;2023-04-06T05:13:36;100735.28;;;-1.06;75.38
77153;BME280;66124;51.146;17.072;2023-04-06T05:16:09;100738.36;;;-1.06;75.51
77153;BME280;66124;51.146;17.072;2023-04-06T05:18:39;100739.10;;;-1.04;75.78
77153;BME280;66124;51.146;17.072;2023-04-06T05:21:08;100737.73;;;-0.99;75.85
77153;BME280;66124;51.146;17.072;2023-04-06T05:23:38;100740.55;;;-0.91;75.95
77153;BME280;66124;51.146;17.072;2023-04-06T05:26:08;100742.41;;;-0.82;75.84
77153;BME280;66124;51.146;17.072;2023-04-06T05:28:38;100746.80;;;-0.72;75.95
77153;BME280;66124;51.146;17.072;2023-04-06T05:31:07;100748.89;;;-0.61;76.06
77153;BME280;66124;51.146;17.072;2023-04-06T05:33:37;100750.54;;;-0.49;76.18
77153;BME280;66124;51.146;17.072;2023-04-06T05:36:07;100750.35;;;-0.41;75.95
77153;BME280;66124;51.146;17.072;2023-04-06T05:38:37;100750.36;;;-0.31;75.87
77153;BME280;66124;51.146;17.072;2023-04-06T05:41:07;100750.14;;;-0.25;75.64
77153;BME280;66124;51.146;17.072;2023-04-06T05:43:36;100747.95;;;-0.17;75.56
77153;BME280;66124;51.146;17.072;2023-04-06T05:46:06;100748.98;;;-0.09;75.18
77153;BME280;66124;51.146;17.072;2023-04-06T05:48:35;100745.85;;;-0.01;74.95
77153;BME280;66124;51.146;17.072;2023-04-06T05:51:05;100746.76;;;0.06;74.74
77153;BME280;66124;51.146;17.072;2023-04-06T05:53:34;100744.02;;;0.11;74.68
77153;BME280;66124;51.146;17.072;2023-04-06T05:56:04;100745.64;;;0.21;74.48
77153;BME280;66124;51.146;17.072;2023-04-06T05:58:34;100752.52;;;0.29;74.41
77153;BME280;66124;51.146;17.072;2023-04-06T06:01:04;100746.48;;;0.36;74.20
77153;BME280;66124;51.146;17.072;2023-04-06T06:03:33;100745.45;;;0.44;74.23
77153;BME280;66124;51.146;17.072;2023-04-06T06:06:04;100740.38;;;0.52;73.99
77153;BME280;66124;51.146;17.072;2023-04-06T06:08:34;100743.91;;;0.61;73.74
77153;BME280;66124;51.146;17.072;2023-04-06T06:11:04;100746.61;;;0.70;73.41
77153;BME280;66124;51.146;17.072;2023-04-06T06:13:34;100747.02;;;0.77;73.29
77153;BME280;66124;51.146;17.072;2023-04-06T06:16:04;100747.56;;;0.84;72.91
77153;BME280;66124;51.146;17.072;2023-04-06T06:18:32;100751.17;;;0.92;72.85
77153;BME280;66124;51.146;17.072;2023-04-06T06:29:38;100753.70;;;1.42;72.00
77153;BME280;66124;51.146;17.072;2023-04-06T06:32:08;100746.14;;;1.55;71.93
77153;BME280;66124;51.146;17.072;2023-04-06T06:34:37;100742.71;;;1.74;71.64
77153;BME280;66124;51.146;17.072;2023-04-06T06:37:07;100745.05;;;1.91;71.48
77153;BME280;66124;51.146;17.072;2023-04-06T06:39:36;100741.13;;;2.09;71.41
77153;BME280;66124;51.146;17.072;2023-04-06T06:42:07;100744.63;;;2.25;71.17
77153;BME280;66124;51.146;17.072;2023-04-06T06:44:37;100746.16;;;2.39;70.87
77153;BME280;66124;51.146;17.072;2023-04-06T06:47:06;100749.29;;;2.48;70.74
77153;BME280;66124;51.146;17.072;2023-04-06T06:49:36;100744.16;;;2.54;70.53
77153;BME280;66124;51.146;17.072;2023-04-06T06:52:05;100744.48;;;2.63;70.27
77153;BME280;66124;51.146;17.072;2023-04-06T06:54:35;100744.90;;;2.72;70.03
77153;BME280;66124;51.146;17.072;2023-04-06T06:57:04;100744.87;;;2.83;70.10
77153;BME280;66124;51.146;17.072;2023-04-06T06:59:34;100743.52;;;2.94;69.66
77153;BME280;66124;51.146;17.072;2023-04-06T07:02:03;100745.20;;;3.06;69.59
77153;BME280;66124;51.146;17.072;2023-04-06T07:04:33;100742.54;;;3.15;69.48
77153;BME280;66124;51.146;17.072;2023-04-06T07:07:02;100746.75;;;3.25;69.04
77153;BME280;66124;51.146;17.072;2023-04-06T07:09:31;100747.80;;;3.36;68.92
77153;BME280;66124;51.146;17.072;2023-04-06T07:12:01;100748.17;;;3.47;68.99
77153;BME280;66124;51.146;17.072;2023-04-06T07:14:30;100729.52;;;3.48;68.97
77153;BME280;66124;51.146;17.072;2023-04-06T07:17:00;100747.70;;;3.68;68.57
77153;BME280;66124;51.146;17.072;2023-04-06T07:19:29;100749.64;;;3.76;68.22
77153;BME280;66124;51.146;17.072;2023-04-06T07:21:58;100751.09;;;3.84;68.04
77153;BME280;66124;51.146;17.072;2023-04-06T07:24:28;100754.27;;;3.92;67.67
77153;BME280;66124;51.146;17.072;2023-04-06T07:26:59;100759.49;;;3.98;67.32
77153;BME280;66124;51.146;17.072;2023-04-06T07:29:29;100754.73;;;4.06;67.26
77153;BME280;66124;51.146;17.072;2023-04-06T07:31:58;100757.74;;;4.07;67.16
77153;BME280;66124;51.146;17.072;2023-04-06T07:34:28;100759.63;;;4.09;66.84
77153;BME280;66124;51.146;17.072;2023-04-06T07:36:57;100756.76;;;4.16;66.57
77153;BME280;66124;51.146;17.072;2023-04-06T07:39:27;100760.27;;;4.22;66.26
77153;BME280;66124;51.146;17.072;2023-04-06T07:41:57;100759.95;;;4.29;65.44
77153;BME280;66124;51.146;17.072;2023-04-06T07:49:38;100762.56;;;4.66;63.81
77153;BME280;66124;51.146;17.072;2023-04-06T07:52:08;100763.23;;;4.70;63.05
77153;BME280;66124;51.146;17.072;2023-04-06T07:54:37;100757.79;;;4.77;62.93
77153;BME280;66124;51.146;17.072;2023-04-06T07:57:07;100757.80;;;4.82;62.59
77153;BME280;66124;51.146;17.072;2023-04-06T07:59:36;100761.35;;;4.82;62.11
77153;BME280;66124;51.146;17.072;2023-04-06T08:02:07;100760.29;;;4.80;61.26
77153;BME280;66124;51.146;17.072;2023-04-06T08:04:37;100758.73;;;4.78;61.14
77153;BME280;66124;51.146;17.072;2023-04-06T08:07:06;100754.14;;;4.81;60.69
77153;BME280;66124;51.146;17.072;2023-04-06T08:09:36;100756.60;;;4.84;60.72
77153;BME280;66124;51.146;17.072;2023-04-06T08:12:05;100757.14;;;4.90;60.10
77153;BME280;66124;51.146;17.072;2023-04-06T08:14:35;100755.58;;;4.94;59.23
77153;BME280;66124;51.146;17.072;2023-04-06T08:17:04;100756.48;;;5.00;59.15
77153;BME280;66124;51.146;17.072;2023-04-06T08:19:34;100760.80;;;5.03;58.46
77153;BME280;66124;51.146;17.072;2023-04-06T08:22:03;100760.61;;;5.07;57.96
77153;BME280;66124;51.146;17.072;2023-04-06T08:24:33;100758.10;;;5.14;57.21
77153;BME280;66124;51.146;17.072;2023-04-06T08:27:02;100756.69;;;5.22;56.61
77153;BME280;66124;51.146;17.072;2023-04-06T08:29:32;100756.90;;;5.27;56.57
77153;BME280;66124;51.146;17.072;2023-04-06T08:32:02;100759.31;;;5.33;56.47
77153;BME280;66124;51.146;17.072;2023-04-06T08:34:31;100761.09;;;5.41;56.37
77153;BME280;66124;51.146;17.072;2023-04-06T08:37:01;100762.42;;;5.44;56.03
77153;BME280;66124;51.146;17.072;2023-04-06T08:39:31;100758.26;;;5.44;55.59
77153;BME280;66124;51.146;17.072;2023-04-06T08:42:01;100759.59;;;5.44;55.44
77153;BME280;66124;51.146;17.072;2023-04-06T08:44:33;100758.55;;;5.44;55.00
77153;BME280;66124;51.146;17.072;2023-04-06T08:47:03;100754.87;;;5.40;54.79
77153;BME280;66124;51.146;17.072;2023-04-06T08:49:34;100753.34;;;5.38;54.77
77153;BME280;66124;51.146;17.072;2023-04-06T08:52:04;100756.25;;;5.39;54.49
77153;BME280;66124;51.146;17.072;2023-04-06T08:54:34;100756.91;;;5.37;54.47
77153;BME280;66124;51.146;17.072;2023-04-06T08:57:06;100755.52;;;5.41;54.83
77153;BME280;66124;51.146;17.072;2023-04-06T08:59:34;100760.46;;;5.48;54.49
77153;BME280;66124;51.146;17.072;2023-04-06T09:02:03;100757.21;;;5.49;54.60
77153;BME280;66124;51.146;17.072;2023-04-06T09:14:32;100752.60;;;5.88;52.14
77153;BME280;66124;51.146;17.072;2023-04-06T09:17:03;100746.30;;;5.86;52.05
77153;BME280;66124;51.146;17.072;2023-04-06T09:19:33;100743.71;;;5.90;52.05
77153;BME280;66124;51.146;17.072;2023-04-06T09:22:06;100743.60;;;5.93;51.67
77153;BME280;66124;51.146;17.072;2023-04-06T09:24:43;100747.05;;;5.97;51.72
77153;BME280;66124;51.146;17.072;2023-04-06T09:27:13;100740.89;;;5.98;51.05
77153;BME280;66124;51.146;17.072;2023-04-06T09:29:44;100738.73;;;5.98;50.92
77153;BME280;66124;51.146;17.072;2023-04-06T09:32:13;100733.02;;;6.04;51.15
77153;BME280;66124;51.146;17.072;2023-04-06T09:34:43;100727.77;;;6.09;50.58
77153;BME280;66124;51.146;17.072;2023-04-06T09:37:16;100726.27;;;6.16;50.40
77153;BME280;66124;51.146;17.072;2023-04-06T09:39:46;100728.67;;;6.24;50.45
77153;BME280;66124;51.146;17.072;2023-04-06T09:42:26;100728.63;;;6.30;50.03
77153;BME280;66124;51.146;17.072;2023-04-06T09:44:55;100732.07;;;6.35;49.93
77153;BME280;66124;51.146;17.072;2023-04-06T09:47:25;100726.52;;;6.44;50.13
77153;BME280;66124;51.146;17.072;2023-04-06T09:49:58;100724.02;;;6.56;49.76
77153;BME280;66124;51.146;17.072;2023-04-06T09:52:30;100723.91;;;6.66;49.36
77153;BME280;66124;51.146;17.072;2023-04-06T09:55:04;100719.75;;;6.73;49.07
77153;BME280;66124;51.146;17.072;2023-04-06T09:57:42;100717.61;;;6.77;48.78
77153;BME280;66124;51.146;17.072;2023-04-06T10:00:17;100720.82;;;6.82;48.62
77153;BME280;66124;51.146;17.072;2023-04-06T10:02:53;100723.80;;;6.84;48.83
77153;BME280;66124;51.146;17.072;2023-04-06T10:05:32;100723.03;;;6.90;48.78
77153;BME280;66124;51.146;17.072;2023-04-06T10:08:06;100723.16;;;6.98;48.62
77153;BME280;66124;51.146;17.072;2023-04-06T10:10:38;100717.05;;;7.02;48.32
77153;BME280;66124;51.146;17.072;2023-04-06T10:13:08;100712.98;;;7.10;48.21
77153;BME280;66124;51.146;17.072;2023-04-06T10:15:39;100714.68;;;7.19;48.38
77153;BME280;66124;51.146;17.072;2023-04-06T10:18:09;100710.80;;;7.32;47.77
77153;BME280;66124;51.146;17.072;2023-04-06T10:20:41;100714.77;;;7.43;47.44
77153;BME280;66124;51.146;17.072;2023-04-06T10:23:15;100714.14;;;7.52;46.81
77153;BME280;66124;51.146;17.072;2023-04-06T10:25:53;100708.23;;;7.57;46.36
77153;BME280;66124;51.146;17.072;2023-04-06T10:33:56;100712.80;;;7.69;45.46
77153;BME280;66124;51.146;17.072;2023-04-06T10:36:28;100711.86;;;7.69;45.44
77153;BME280;66124;51.146;17.072;2023-04-06T10:39:00;100698.70;;;7.75;45.22
77153;BME280;66124;51.146;17.072;2023-04-06T10:41:35;100689.44;;;7.88;45.16
77153;BME280;66124;51.146;17.072;2023-04-06T10:44:05;100694.45;;;8.18;45.03
77153;BME280;66124;51.146;17.072;2023-04-06T10:46:35;100689.04;;;8.46;44.58
77153;BME280;66124;51.146;17.072;2023-04-06T10:49:12;100688.73;;;8.58;44.49
77153;BME280;66124;51.146;17.072;2023-04-06T10:51:42;100687.65;;;8.68;44.20
77153;BME280;66124;51.146;17.072;2023-04-06T10:54:12;100688.30;;;8.77;44.00
77153;BME280;66124;51.146;17.072;2023-04-06T10:56:42;100686.84;;;8.86;43.78
77153;BME280;66124;51.146;17.072;2023-04-06T10:59:12;100685.42;;;8.99;43.45
77153;BME280;66124;51.146;17.072;2023-04-06T11:01:45;100684.65;;;9.20;43.08
77153;BME280;66124;51.146;17.072;2023-04-06T11:04:17;100686.14;;;9.46;42.76
77153;BME280;66124;51.146;17.072;2023-04-06T11:06:49;100676.96;;;9.58;42.72
77153;BME280;66124;51.146;17.072;2023-04-06T11:09:29;100681.37;;;9.74;42.10
77153;BME280;66124;51.146;17.072;2023-04-06T11:11:58;100686.94;;;9.65;41.91
77153;BME280;66124;51.146;17.072;2023-04-06T11:14:28;100681.08;;;9.62;41.73
77153;BME280;66124;51.146;17.072;2023-04-06T11:16:57;100672.41;;;9.76;41.90
77153;BME280;66124;51.146;17.072;2023-04-06T11:19:27;100665.28;;;10.06;41.69
77153;BME280;66124;51.146;17.072;2023-04-06T11:24:35;100668.31;;;10.60;41.21
77153;BME280;66124;51.146;17.072;2023-04-06T11:27:05;100670.51;;;10.61;40.98
77153;BME280;66124;51.146;17.072;2023-04-06T11:29:35;100663.69;;;10.38;40.26
77153;BME280;66124;51.146;17.072;2023-04-06T11:32:05;100659.97;;;10.18;40.33
77153;BME280;66124;51.146;17.072;2023-04-06T11:34:37;100655.16;;;10.37;40.62
77153;BME280;66124;51.146;17.072;2023-04-06T11:37:10;100649.91;;;10.71;39.83
77153;BME280;66124;51.146;17.072;2023-04-06T11:39:43;100648.61;;;10.85;39.23
77153;BME280;66124;51.146;17.072;2023-04-06T11:42:12;100652.30;;;10.76;39.10
77153;BME280;66124;51.146;17.072;2023-04-06T11:44:44;100648.19;;;10.90;38.98
77153;BME280;66124;51.146;17.072;2023-04-06T11:54:33;100635.94;;;11.89;38.04
77153;BME280;66124;51.146;17.072;2023-04-06T11:57:03;100632.31;;;11.84;37.03
77153;BME280;66124;51.146;17.072;2023-04-06T11:59:33;100637.29;;;11.44;37.07
77153;BME280;66124;51.146;17.072;2023-04-06T12:02:04;100639.78;;;11.21;37.49
77153;BME280;66124;51.146;17.072;2023-04-06T12:04:34;100631.13;;;11.34;37.59
77153;BME280;66124;51.146;17.072;2023-04-06T12:07:04;100629.11;;;11.64;37.70
77153;BME280;66124;51.146;17.072;2023-04-06T12:09:33;100629.72;;;12.09;36.67
77153;BME280;66124;51.146;17.072;2023-04-06T12:12:03;100628.20;;;12.53;36.20
77153;BME280;66124;51.146;17.072;2023-04-06T12:14:33;100622.02;;;12.98;35.84
77153;BME280;66124;51.146;17.072;2023-04-06T12:17:02;100614.77;;;13.53;35.66
77153;BME280;66124;51.146;17.072;2023-04-06T12:19:32;100600.59;;;14.17;34.81
77153;BME280;66124;51.146;17.072;2023-04-06T12:22:01;100611.52;;;14.49;34.21
77153;BME280;66124;51.146;17.072;2023-04-06T12:24:31;100604.52;;;14.62;33.75
77153;BME280;66124;51.146;17.072;2023-04-06T12:27:00;100607.51;;;14.71;33.79
77153;BME280;66124;51.146;17.072;2023-04-06T12:29:30;100600.07;;;14.97;33.35
77153;BME280;66124;51.146;17.072;2023-04-06T12:31:59;100589.95;;;15.28;33.10
77153;BME280;66124;51.146;17.072;2023-04-06T12:34:29;100584.31;;;15.58;32.72
77153;BME280;66124;51.146;17.072;2023-04-06T12:36:58;100585.19;;;15.84;32.68
77153;BME280;66124;51.146;17.072;2023-04-06T12:39:28;100575.39;;;16.20;31.79
77153;BME280;66124;51.146;17.072;2023-04-06T12:41:57;100577.48;;;16.21;30.89
77153;BME280;66124;51.146;17.072;2023-04-06T12:44:27;100575.66;;;16.02;30.68
77153;BME280;66124;51.146;17.072;2023-04-06T12:46:56;100574.52;;;15.93;30.45
77153;BME280;66124;51.146;17.072;2023-04-06T12:49:27;100571.04;;;15.77;30.26
77153;BME280;66124;51.146;17.072;2023-04-06T12:51:56;100567.41;;;15.77;30.24
77153;BME280;66124;51.146;17.072;2023-04-06T12:54:26;100567.94;;;15.95;30.02
77153;BME280;66124;51.146;17.072;2023-04-06T12:56:56;100573.29;;;16.00;29.61
77153;BME280;66124;51.146;17.072;2023-04-06T12:59:26;100574.47;;;16.13;29.06
77153;BME280;66124;51.146;17.072;2023-04-06T13:01:55;100566.19;;;16.15;28.54
77153;BME280;66124;51.146;17.072;2023-04-06T13:04:23;100567.54;;;16.10;28.44
77153;BME280;66124;51.146;17.072;2023-04-06T13:06:51;100562.60;;;16.27;28.74
77153;BME280;66124;51.146;17.072;2023-04-06T13:14:44;100557.13;;;16.73;27.96
77153;BME280;66124;51.146;17.072;2023-04-06T13:17:14;100550.29;;;16.90;28.06
77153;BME280;66124;51.146;17.072;2023-04-06T13:19:43;100546.92;;;17.22;27.61
77153;BME280;66124;51.146;17.072;2023-04-06T13:22:12;100544.81;;;17.36;27.73
77153;BME280;66124;51.146;17.072;2023-04-06T13:24:42;100542.19;;;17.51;27.22
77153;BME280;66124;51.146;17.072;2023-04-06T13:27:12;100540.77;;;17.31;27.39
77153;BME280;66124;51.146;17.072;2023-04-06T13:29:42;100546.66;;;17.18;27.45
77153;BME280;66124;51.146;17.072;2023-04-06T13:32:11;100542.17;;;17.12;27.09
77153;BME280;66124;51.146;17.072;2023-04-06T13:34:41;100542.92;;;16.79;27.14
77153;BME280;66124;51.146;17.072;2023-04-06T13:37:10;100543.85;;;16.29;27.16
77153;BME280;66124;51.146;17.072;2023-04-06T13:39:40;100541.50;;;15.51;27.26
77153;BME280;66124;51.146;17.072;2023-04-06T13:42:09;100538.52;;;14.69;27.97
77153;BME280;66124;51.146;17.072;2023-04-06T13:44:39;100538.23;;;14.09;28.16
77153;BME280;66124;51.146;17.072;2023-04-06T13:47:08;100539.31;;;13.54;28.81
77153;BME280;66124;51.146;17.072;2023-04-06T13:49:38;100532.05;;;13.16;29.01
77153;BME280;66124;51.146;17.072;2023-04-06T13:52:07;100535.35;;;12.92;29.75
77153;BME280;66124;51.146;17.072;2023-04-06T13:54:37;100535.80;;;12.96;30.12